createdAt,value
2023-04-08T00:00:35.160Z,8.88
2023-04-08T00:01:37.245Z,8.72
2023-04-08T00:02:39.612Z,8.62
2023-04-08T00:03:41.857Z,8.78
2023-04-08T00:04:46.082Z,8.82
2023-04-08T00:05:48.304Z,8.83
2023-04-08T00:06:50.446Z,8.82
2023-04-08T00:07:52.443Z,8.90
2023-04-08T00:08:54.486Z,8.92
2023-04-08T00:09:56.474Z,8.96
2023-04-08T00:10:58.635Z,9.05
2023-04-08T00:12:00.488Z,9.03
2023-04-08T00:13:02.516Z,9.04
2023-04-08T00:14:04.537Z,9.06
2023-04-08T00:15:07.028Z,9.08
2023-04-08T00:16:09.206Z,9.02
2023-04-08T00:17:11.163Z,9.13
2023-04-08T00:18:14.663Z,9.08
2023-04-08T00:19:16.584Z,8.99
2023-04-08T00:20:18.965Z,9.08
2023-04-08T00:21:21.251Z,9.10
2023-04-08T00:22:23.282Z,9.18
2023-04-08T00:23:25.391Z,9.00
2023-04-08T00:24:27.456Z,9.07
2023-04-08T00:25:30.034Z,9.16
2023-04-08T00:26:33.273Z,9.08
2023-04-08T00:27:35.313Z,9.02
2023-04-08T00:28:37.901Z,9.01
2023-04-08T00:29:39.834Z,9.08
2023-04-08T00:30:43.513Z,8.94
2023-04-08T00:31:45.702Z,9.07
2023-04-08T00:32:47.608Z,9.01
2023-04-08T00:33:50.207Z,8.99
2023-04-08T00:34:52.108Z,9.07
2023-04-08T00:35:54.179Z,9.03
2023-04-08T00:36:56.530Z,8.98
2023-04-08T00:37:59.252Z,8.91
2023-04-08T00:39:02.045Z,9.01
2023-04-08T00:40:05.818Z,8.96
2023-04-08T00:41:07.911Z,8.99
2023-04-08T00:42:11.248Z,8.99
2023-04-08T00:43:13.343Z,9.06
2023-04-08T00:44:15.434Z,9.10
2023-04-08T00:45:17.460Z,9.17
2023-04-08T00:46:20.869Z,9.07
2023-04-08T00:47:23.441Z,9.02
2023-04-08T00:48:25.391Z,9.00
2023-04-08T00:49:27.679Z,8.88
2023-04-08T00:50:29.769Z,8.91
2023-04-08T00:51:31.769Z,8.80
2023-04-08T00:52:33.698Z,8.75
2023-04-08T00:53:35.943Z,8.65
2023-04-08T00:54:38.045Z,8.80
2023-04-08T00:55:40.241Z,8.86
2023-04-08T00:56:43.741Z,8.85
2023-04-08T00:57:46.923Z,8.86
2023-04-08T00:58:50.823Z,8.93
2023-04-08T00:59:53.111Z,8.89
2023-04-08T01:01:01.751Z,8.98
2023-04-08T01:02:38.871Z,8.98
2023-04-08T01:03:47.605Z,8.84
2023-04-08T01:04:53.513Z,8.93
2023-04-08T01:06:17.260Z,9.04
2023-04-08T01:07:25.803Z,8.96
2023-04-08T01:08:30.249Z,8.95
2023-04-08T01:09:34.965Z,9.02
2023-04-08T01:10:40.247Z,8.90
2023-04-08T01:11:44.082Z,9.04
2023-04-08T01:12:55.504Z,8.83
2023-04-08T01:13:57.646Z,8.87
2023-04-08T01:15:06.427Z,8.95
2023-04-08T01:16:12.284Z,9.01
2023-04-08T01:17:16.632Z,9.01
2023-04-08T01:18:20.655Z,9.05
2023-04-08T01:19:29.103Z,9.18
2023-04-08T01:20:31.877Z,9.15
2023-04-08T01:21:36.829Z,8.97
2023-04-08T01:22:59.478Z,8.85
2023-04-08T01:24:15.227Z,9.04
2023-04-08T01:25:20.723Z,8.99
2023-04-08T01:26:25.439Z,8.97
2023-04-08T01:27:31.156Z,8.93
2023-04-08T01:28:34.972Z,8.90
2023-04-08T01:29:38.336Z,8.93
2023-04-08T01:30:42.126Z,8.97
2023-04-08T01:31:45.471Z,9.06
2023-04-08T01:32:48.905Z,9.07
2023-04-08T01:33:51.964Z,9.07
2023-04-08T01:34:57.123Z,9.13
2023-04-08T01:36:01.043Z,9.00
2023-04-08T01:37:05.810Z,8.95
2023-04-08T01:38:10.492Z,8.93
2023-04-08T01:39:15.041Z,8.92
2023-04-08T01:40:19.285Z,8.94
2023-04-08T01:41:21.691Z,8.74
2023-04-08T01:42:26.711Z,8.92
2023-04-08T01:43:30.037Z,9.05
2023-04-08T01:44:32.824Z,8.90
2023-04-08T01:45:34.919Z,8.84
2023-04-08T01:46:39.716Z,8.84
2023-04-08T01:47:44.653Z,8.77
2023-04-08T01:48:48.327Z,8.84
2023-04-08T01:49:52.824Z,8.80
2023-04-08T01:50:56.467Z,8.83
2023-04-08T01:52:02.363Z,8.80
2023-04-08T01:53:07.384Z,8.79
2023-04-08T01:54:09.612Z,8.87
2023-04-08T01:55:12.132Z,8.75
2023-04-08T01:56:15.777Z,8.74
2023-04-08T01:57:24.283Z,8.80
2023-04-08T01:58:30.091Z,8.77
2023-04-08T01:59:34.958Z,8.80
2023-04-08T02:00:40.092Z,8.87
2023-04-08T02:01:44.184Z,8.96
2023-04-08T02:02:48.016Z,8.89
2023-04-08T02:03:52.619Z,8.93
2023-04-08T02:04:55.030Z,8.83
2023-04-08T02:05:56.948Z,8.75
2023-04-08T02:07:00.507Z,8.60
2023-04-08T02:08:02.579Z,8.65
2023-04-08T02:09:04.506Z,8.80
2023-04-08T02:10:08.096Z,8.79
2023-04-08T02:11:10.137Z,8.89
2023-04-08T02:12:12.311Z,8.94
2023-04-08T02:13:14.204Z,8.96
2023-04-08T02:14:16.628Z,8.98
2023-04-08T02:15:18.616Z,9.04
2023-04-08T02:16:24.465Z,9.03
2023-04-08T02:17:36.242Z,8.92
2023-04-08T02:18:41.365Z,8.73
2023-04-08T02:21:00.456Z,9.01
2023-04-08T02:22:06.116Z,8.97
2023-04-08T02:23:17.424Z,8.84
2023-04-08T02:24:21.276Z,8.78
2023-04-08T02:25:24.969Z,8.86
2023-04-08T02:26:27.060Z,8.91
2023-04-08T02:27:29.743Z,8.84
2023-04-08T02:28:34.511Z,8.88
2023-04-08T02:29:38.714Z,8.88
2023-04-08T02:30:49.937Z,8.81
2023-04-08T02:31:53.173Z,8.88
2023-04-08T02:32:57.611Z,8.83
2023-04-08T02:34:00.277Z,8.80
2023-04-08T02:35:04.065Z,8.78
2023-04-08T02:36:07.762Z,8.84
2023-04-08T02:37:09.860Z,8.88
2023-04-08T02:38:13.711Z,8.93
2023-04-08T02:39:16.912Z,8.97
2023-04-08T02:40:28.935Z,8.90
2023-04-08T02:41:30.903Z,8.79
2023-04-08T02:42:32.945Z,8.80
2023-04-08T02:43:34.917Z,8.80
2023-04-08T02:44:36.804Z,8.78
2023-04-08T02:45:41.375Z,8.84
2023-04-08T02:46:43.664Z,8.81
2023-04-08T02:47:45.671Z,8.85
2023-04-08T02:48:48.498Z,8.88
2023-04-08T02:49:50.652Z,8.69
2023-04-08T02:50:52.613Z,8.58
2023-04-08T02:51:54.507Z,8.72
2023-04-08T02:52:56.674Z,8.62
2023-04-08T02:53:58.595Z,8.71
2023-04-08T02:55:01.028Z,8.78
2023-04-08T02:56:03.346Z,8.63
2023-04-08T02:57:05.384Z,8.70
2023-04-08T02:58:07.328Z,8.68
2023-04-08T02:59:09.207Z,8.71
2023-04-08T03:00:12.872Z,8.73
2023-04-08T03:01:14.834Z,8.53
2023-04-08T03:02:16.859Z,8.56
2023-04-08T03:03:19.097Z,8.54
2023-04-08T03:04:21.267Z,8.56
2023-04-08T03:05:23.287Z,8.74
2023-04-08T03:06:25.468Z,8.74
2023-04-08T03:07:28.234Z,8.79
2023-04-08T03:08:30.262Z,8.67
2023-04-08T03:09:32.195Z,8.66
2023-04-08T03:10:34.459Z,8.52
2023-04-08T03:11:36.346Z,8.53
2023-04-08T03:12:38.214Z,8.56
2023-04-08T03:13:40.069Z,8.47
2023-04-08T03:14:42.140Z,8.46
2023-04-08T03:15:44.121Z,8.58
2023-04-08T03:16:46.326Z,8.70
2023-04-08T03:17:48.450Z,8.73
2023-04-08T03:18:50.594Z,8.79
2023-04-08T03:19:53.534Z,8.84
2023-04-08T03:20:55.580Z,8.84
2023-04-08T03:21:57.621Z,8.62
2023-04-08T03:22:59.600Z,8.73
2023-04-08T03:24:03.516Z,8.70
2023-04-08T03:25:06.454Z,8.82
2023-04-08T03:26:09.524Z,8.69
2023-04-08T03:27:14.242Z,8.75
2023-04-08T03:28:16.297Z,8.71
2023-04-08T03:29:18.724Z,8.80
2023-04-08T03:30:21.224Z,8.89
2023-04-08T03:31:23.553Z,8.96
2023-04-08T03:32:25.518Z,9.00
2023-04-08T03:33:27.597Z,8.99
2023-04-08T03:34:30.019Z,9.06
2023-04-08T03:35:31.962Z,9.02
2023-04-08T03:36:34.154Z,9.05
2023-04-08T03:37:36.152Z,9.04
2023-04-08T03:38:40.294Z,8.94
2023-04-08T03:39:42.237Z,8.97
2023-04-08T03:40:44.233Z,8.89
2023-04-08T03:41:46.099Z,8.78
2023-04-08T03:42:48.072Z,8.88
2023-04-08T03:43:50.070Z,8.94
2023-04-08T03:44:52.011Z,8.96
2023-04-08T03:45:55.250Z,9.00
2023-04-08T03:46:57.408Z,9.02
2023-04-08T03:47:59.314Z,8.96
2023-04-08T03:49:01.360Z,8.91
2023-04-08T03:50:03.615Z,8.95
2023-04-08T03:51:06.829Z,8.95
2023-04-08T03:52:08.776Z,8.87
2023-04-08T03:53:10.953Z,8.89
2023-04-08T03:54:12.963Z,8.97
2023-04-08T03:55:14.901Z,8.97
2023-04-08T03:56:17.118Z,9.02
2023-04-08T03:57:19.115Z,8.96
2023-04-08T03:58:21.131Z,8.92
2023-04-08T03:59:23.798Z,8.88
2023-04-08T04:00:26.179Z,8.88
2023-04-08T04:01:28.469Z,8.87
2023-04-08T04:02:31.165Z,8.84
2023-04-08T04:03:33.750Z,8.75
2023-04-08T04:04:36.694Z,8.79
2023-04-08T04:05:40.446Z,8.85
2023-04-08T04:06:42.686Z,8.77
2023-04-08T04:07:45.025Z,8.82
2023-04-08T04:08:46.942Z,8.81
2023-04-08T04:09:48.973Z,8.78
2023-04-08T04:10:50.949Z,8.65
2023-04-08T04:11:52.802Z,8.78
2023-04-08T04:12:54.915Z,8.63
2023-04-08T04:13:58.775Z,8.78
2023-04-08T04:15:00.721Z,8.64
2023-04-08T04:16:03.419Z,8.66
2023-04-08T04:17:05.534Z,8.65
2023-04-08T04:18:07.551Z,8.74
2023-04-08T04:19:09.684Z,8.77
2023-04-08T04:20:13.085Z,8.78
2023-04-08T04:21:15.354Z,8.89
2023-04-08T04:22:17.281Z,8.77
2023-04-08T04:23:19.144Z,8.89
2023-04-08T04:24:21.057Z,8.92
2023-04-08T04:25:23.288Z,9.03
2023-04-08T04:26:25.812Z,9.05
2023-04-08T04:27:27.933Z,8.95
2023-04-08T04:28:29.801Z,8.88
2023-04-08T04:29:31.736Z,9.04
2023-04-08T04:30:36.807Z,9.10
2023-04-08T04:31:38.954Z,9.04
2023-04-08T04:32:43.150Z,9.10
2023-04-08T04:33:45.292Z,9.03
2023-04-08T04:34:47.227Z,8.98
2023-04-08T04:35:49.279Z,8.98
2023-04-08T04:36:51.512Z,8.94
2023-04-08T04:37:53.510Z,8.96
2023-04-08T04:38:55.786Z,9.11
2023-04-08T04:39:57.999Z,9.10
2023-04-08T04:41:00.134Z,9.19
2023-04-08T04:42:02.250Z,9.17
2023-04-08T04:43:05.304Z,9.06
2023-04-08T04:44:07.215Z,9.01
2023-04-08T04:45:09.918Z,9.11
2023-04-08T04:46:12.827Z,9.05
2023-04-08T04:47:14.761Z,9.16
2023-04-08T04:48:16.643Z,9.13
2023-04-08T04:49:18.993Z,9.22
2023-04-08T04:50:21.080Z,9.32
2023-04-08T04:51:22.968Z,9.29
2023-04-08T04:52:24.934Z,9.31
2023-04-08T04:53:28.523Z,9.39
2023-04-08T04:54:31.217Z,9.54
2023-04-08T04:55:33.228Z,9.38
2023-04-08T04:56:35.291Z,9.61
2023-04-08T04:57:37.141Z,9.52
2023-04-08T04:58:39.027Z,9.42
2023-04-08T04:59:41.308Z,9.61
2023-04-08T05:00:43.281Z,9.73
2023-04-08T05:01:45.334Z,9.70
2023-04-08T05:02:47.678Z,9.70
2023-04-08T05:03:49.685Z,9.47
2023-04-08T05:04:51.817Z,9.43
2023-04-08T05:05:54.337Z,9.56
2023-04-08T05:07:00.956Z,9.54
2023-04-08T05:08:03.894Z,9.78
2023-04-08T05:09:05.903Z,9.92
2023-04-08T05:10:09.838Z,10.00
2023-04-08T05:11:11.789Z,9.90
2023-04-08T05:12:13.785Z,9.81
2023-04-08T05:13:16.755Z,10.00
2023-04-08T05:14:18.662Z,10.05
2023-04-08T05:15:21.977Z,9.92
2023-04-08T05:16:24.043Z,10.14
2023-04-08T05:17:26.218Z,10.31
2023-04-08T05:18:28.250Z,10.43
2023-04-08T05:19:30.170Z,10.15
2023-04-08T05:20:32.247Z,10.17
2023-04-08T05:21:34.146Z,10.27
2023-04-08T05:22:36.288Z,10.44
2023-04-08T05:23:38.193Z,10.53
2023-04-08T05:24:40.095Z,10.63
2023-04-08T05:25:42.399Z,10.41
2023-04-08T05:26:44.631Z,10.48
2023-04-08T05:27:46.493Z,10.56
2023-04-08T05:28:51.312Z,10.50
2023-04-08T05:29:53.840Z,10.56
2023-04-08T05:30:55.902Z,10.47
2023-04-08T05:31:59.809Z,10.71
2023-04-08T05:33:01.727Z,10.80
2023-04-08T05:34:03.712Z,10.92
2023-04-08T05:35:06.948Z,10.61
2023-04-08T05:36:10.697Z,10.44
2023-04-08T05:37:12.786Z,10.62
2023-04-08T05:38:14.738Z,10.72
2023-04-08T05:39:20.220Z,10.78
2023-04-08T05:40:22.411Z,10.69
2023-04-08T05:41:24.799Z,10.90
2023-04-08T05:42:26.812Z,10.85
2023-04-08T05:43:28.687Z,10.84
2023-04-08T05:44:31.428Z,11.02
2023-04-08T05:45:33.524Z,11.16
2023-04-08T05:46:35.632Z,11.36
2023-04-08T05:47:37.849Z,11.47
2023-04-08T05:48:39.997Z,11.56
2023-04-08T05:49:41.954Z,11.70
2023-04-08T05:50:44.200Z,11.59
2023-04-08T05:51:46.667Z,11.69
2023-04-08T05:52:48.717Z,11.77
2023-04-08T05:53:54.705Z,11.88
2023-04-08T05:54:56.761Z,11.85
2023-04-08T05:55:58.671Z,11.80
2023-04-08T05:57:00.998Z,11.83
2023-04-08T05:58:02.987Z,11.85
2023-04-08T05:59:04.879Z,11.92
2023-04-08T06:00:10.276Z,11.89
2023-04-08T06:01:12.568Z,11.97
2023-04-08T06:02:14.584Z,12.10
2023-04-08T06:03:19.716Z,12.12
2023-04-08T06:04:20.623Z,12.18
2023-04-08T06:05:22.758Z,12.18
2023-04-08T06:06:25.226Z,12.25
2023-04-08T06:07:29.312Z,12.26
2023-04-08T06:08:31.289Z,12.45
2023-04-08T06:09:36.230Z,12.45
2023-04-08T06:10:38.510Z,12.46
2023-04-08T06:11:41.384Z,12.22
2023-04-08T06:12:44.178Z,12.30
2023-04-08T06:13:46.134Z,12.28
2023-04-08T06:14:50.041Z,12.32
2023-04-08T06:15:52.073Z,12.46
2023-04-08T06:16:54.099Z,12.34
2023-04-08T06:17:56.916Z,12.41
2023-04-08T06:18:59.121Z,12.40
2023-04-08T06:20:01.736Z,12.21
2023-04-08T06:21:03.784Z,12.23
2023-04-08T06:22:05.789Z,12.22
2023-04-08T06:23:08.007Z,12.48
2023-04-08T06:24:09.990Z,12.33
2023-04-08T06:25:13.120Z,12.24
2023-04-08T06:26:15.350Z,12.41
2023-04-08T06:27:17.419Z,12.14
2023-04-08T06:28:19.289Z,12.35
2023-04-08T06:29:22.518Z,12.43
2023-04-08T06:30:24.762Z,12.14
2023-04-08T06:31:26.657Z,12.12
2023-04-08T06:32:28.686Z,12.35
2023-04-08T06:33:31.396Z,12.41
2023-04-08T06:34:34.191Z,11.92
2023-04-08T06:35:37.097Z,11.95
2023-04-08T06:36:39.366Z,12.06
2023-04-08T06:37:41.359Z,12.11
2023-04-08T06:38:43.268Z,12.22
2023-04-08T06:39:45.279Z,12.44
2023-04-08T06:40:47.510Z,12.51
2023-04-08T06:41:49.550Z,12.51
2023-04-08T06:42:52.686Z,12.17
2023-04-08T06:43:55.010Z,12.19
2023-04-08T06:44:57.164Z,12.54
2023-04-08T06:45:59.430Z,12.66
2023-04-08T06:47:01.723Z,12.72
2023-04-08T06:48:05.019Z,12.71
2023-04-08T06:49:06.981Z,12.74
2023-04-08T06:50:09.913Z,12.74
2023-04-08T06:51:11.885Z,12.90
2023-04-08T06:52:15.708Z,12.90
2023-04-08T06:53:17.594Z,12.92
2023-04-08T06:54:19.454Z,12.89
2023-04-08T06:55:21.308Z,13.06
2023-04-08T06:56:23.671Z,12.91
2023-04-08T06:57:25.741Z,12.83
2023-04-08T06:58:27.716Z,12.98
2023-04-08T06:59:29.804Z,13.17
2023-04-08T07:00:31.970Z,13.24
2023-04-08T07:01:33.936Z,13.34
2023-04-08T07:02:36.110Z,13.27
2023-04-08T07:03:38.518Z,13.35
2023-04-08T07:04:40.545Z,13.42
2023-04-08T07:05:42.433Z,13.63
2023-04-08T07:06:44.421Z,13.82
2023-04-08T07:07:46.775Z,13.81
2023-04-08T07:08:48.972Z,13.64
2023-04-08T07:09:51.566Z,13.86
2023-04-08T07:10:53.737Z,13.82
2023-04-08T07:11:55.609Z,13.84
2023-04-08T07:12:57.671Z,13.66
2023-04-08T07:13:59.541Z,13.72
2023-04-08T07:15:01.454Z,13.75
2023-04-08T07:16:04.347Z,13.92
2023-04-08T07:17:06.268Z,13.73
2023-04-08T07:18:08.240Z,13.83
2023-04-08T07:19:10.329Z,13.79
2023-04-08T07:20:13.197Z,13.88
2023-04-08T07:21:15.368Z,13.96
2023-04-08T07:22:17.546Z,14.08
2023-04-08T07:23:20.340Z,14.10
2023-04-08T07:24:23.525Z,14.02
2023-04-08T07:25:25.622Z,14.11
2023-04-08T07:26:27.805Z,14.17
2023-04-08T07:27:29.737Z,14.19
2023-04-08T07:28:31.608Z,14.15
2023-04-08T07:29:33.476Z,14.36
2023-04-08T07:30:35.604Z,14.33
2023-04-08T07:31:38.867Z,13.87
2023-04-08T07:32:40.768Z,13.98
2023-04-08T07:33:44.908Z,13.93
2023-04-08T07:34:46.784Z,14.11
2023-04-08T07:35:48.697Z,14.14
2023-04-08T07:36:50.828Z,14.31
2023-04-08T07:37:52.731Z,14.31
2023-04-08T07:38:54.863Z,14.28
2023-04-08T07:39:56.770Z,14.35
2023-04-08T07:40:58.949Z,14.43
2023-04-08T07:42:00.819Z,14.54
2023-04-08T07:43:02.709Z,14.54
2023-04-08T07:44:04.994Z,14.55
2023-04-08T07:45:08.096Z,14.51
2023-04-08T07:46:10.687Z,14.61
2023-04-08T07:47:13.106Z,14.65
2023-04-08T07:48:15.072Z,14.38
2023-04-08T07:49:17.160Z,14.64
2023-04-08T07:50:19.164Z,14.74
2023-04-08T07:51:21.144Z,14.56
2023-04-08T07:52:23.556Z,14.44
2023-04-08T07:53:25.432Z,14.52
2023-04-08T07:54:27.501Z,14.55
2023-04-08T07:56:44.827Z,14.48
2023-04-08T07:57:47.165Z,14.54
2023-04-08T07:58:51.200Z,14.54
2023-04-08T07:59:53.003Z,14.63
2023-04-08T08:00:55.268Z,14.89
2023-04-08T08:01:57.314Z,14.93
2023-04-08T08:02:59.435Z,14.93
2023-04-08T08:04:01.937Z,15.15
2023-04-08T08:05:05.172Z,15.05
2023-04-08T08:06:07.348Z,14.81
2023-04-08T08:07:09.210Z,14.84
2023-04-08T08:08:11.146Z,14.93
2023-04-08T08:09:13.242Z,15.02
2023-04-08T08:10:15.806Z,15.03
2023-04-08T08:11:18.458Z,15.11
2023-04-08T08:12:20.364Z,15.04
2023-04-08T08:13:22.238Z,14.78
2023-04-08T08:14:24.539Z,14.84
2023-04-08T08:15:26.749Z,14.83
2023-04-08T08:16:32.383Z,15.07
2023-04-08T08:17:34.692Z,15.20
2023-04-08T08:18:37.425Z,15.26
2023-04-08T08:19:39.316Z,15.24
2023-04-08T08:20:41.568Z,15.12
2023-04-08T08:21:43.544Z,15.04
2023-04-08T08:22:54.570Z,15.25
2023-04-08T08:23:52.075Z,15.29
2023-04-08T08:24:58.903Z,15.39
2023-04-08T08:26:06.348Z,15.34
2023-04-08T08:27:13.343Z,15.53
2023-04-08T08:28:15.288Z,15.25
2023-04-08T08:29:17.170Z,15.48
2023-04-08T08:30:19.349Z,15.71
2023-04-08T08:31:21.370Z,15.74
2023-04-08T08:32:23.296Z,15.95
2023-04-08T08:33:25.752Z,15.87
2023-04-08T08:34:29.968Z,15.73
2023-04-08T08:35:32.164Z,15.91
2023-04-08T08:36:35.703Z,16.13
2023-04-08T08:37:37.621Z,16.15
2023-04-08T08:38:40.051Z,15.93
2023-04-08T08:39:41.999Z,16.12
2023-04-08T08:40:45.042Z,16.12
2023-04-08T08:41:47.035Z,16.00
2023-04-08T08:42:52.263Z,15.96
2023-04-08T08:43:55.657Z,15.92
2023-04-08T08:44:59.607Z,15.66
2023-04-08T08:46:01.586Z,15.05
2023-04-08T08:47:04.737Z,15.23
2023-04-08T08:48:09.972Z,15.33
2023-04-08T08:49:12.316Z,15.58
2023-04-08T08:50:14.602Z,15.72
2023-04-08T08:51:18.989Z,15.40
2023-04-08T08:52:21.206Z,15.76
2023-04-08T08:53:35.142Z,15.47
2023-04-08T08:54:35.451Z,15.47
2023-04-08T08:56:42.020Z,15.64
2023-04-08T08:57:43.978Z,15.82
2023-04-08T08:58:46.001Z,15.46
2023-04-08T08:59:48.252Z,15.49
2023-04-08T09:00:50.431Z,15.68
2023-04-08T09:01:52.367Z,15.95
2023-04-08T09:02:54.621Z,16.15
2023-04-08T09:04:09.774Z,16.24
2023-04-08T09:05:12.115Z,16.45
2023-04-08T09:06:17.626Z,16.63
2023-04-08T09:07:23.336Z,16.35
2023-04-08T09:09:50.408Z,16.41
2023-04-08T09:10:56.323Z,16.05
2023-04-08T09:12:05.058Z,16.18
2023-04-08T09:13:07.121Z,16.62
2023-04-08T09:14:23.179Z,16.67
2023-04-08T09:15:25.275Z,16.97
2023-04-08T09:16:27.656Z,16.85
2023-04-08T09:17:39.219Z,16.85
2023-04-08T09:18:41.589Z,16.60
2023-04-08T09:20:08.978Z,16.70
2023-04-08T09:21:13.301Z,16.78
2023-04-08T09:22:15.380Z,16.81
2023-04-08T09:23:19.113Z,16.67
2023-04-08T09:24:29.970Z,16.75
2023-04-08T09:25:33.293Z,16.85
2023-04-08T09:26:36.541Z,16.74
2023-04-08T09:27:38.657Z,16.83
2023-04-08T09:28:42.378Z,17.00
2023-04-08T09:29:44.306Z,16.74
2023-04-08T09:30:46.823Z,16.12
2023-04-08T09:31:55.994Z,16.49
2023-04-08T09:33:00.575Z,16.64
2023-04-08T09:34:11.532Z,16.37
2023-04-08T09:35:13.475Z,16.53
2023-04-08T09:36:17.131Z,16.68
2023-04-08T09:38:31.592Z,16.73
2023-04-08T09:39:33.718Z,16.82
2023-04-08T09:40:37.048Z,16.96
2023-04-08T09:41:40.177Z,16.91
2023-04-08T09:42:47.763Z,16.81
2023-04-08T09:43:53.929Z,16.75
2023-04-08T09:44:57.468Z,16.80
2023-04-08T09:46:02.013Z,16.96
2023-04-08T09:47:11.558Z,16.74
2023-04-08T09:48:20.273Z,16.97
2023-04-08T09:49:31.150Z,16.84
2023-04-08T09:50:37.059Z,16.88
2023-04-08T09:52:04.186Z,16.82
2023-04-08T09:53:10.354Z,16.77
2023-04-08T09:54:16.258Z,16.72
2023-04-08T09:55:21.763Z,16.67
2023-04-08T09:56:28.187Z,16.51
2023-04-08T09:57:56.715Z,16.63
2023-04-08T09:59:01.498Z,16.47
2023-04-08T10:01:22.549Z,16.47
2023-04-08T10:02:28.500Z,16.28
2023-04-08T10:03:40.827Z,16.48
2023-04-08T10:04:45.229Z,16.51
2023-04-08T10:05:49.465Z,16.41
2023-04-08T10:06:55.582Z,16.39
2023-04-08T10:07:58.462Z,16.52
2023-04-08T10:09:02.562Z,16.21
2023-04-08T10:10:06.499Z,16.50
2023-04-08T10:11:09.499Z,16.66
2023-04-08T10:12:11.668Z,16.64
2023-04-08T10:13:14.277Z,16.71
2023-04-08T10:14:16.246Z,16.53
2023-04-08T10:15:33.148Z,16.44
2023-04-08T10:16:35.188Z,16.44
2023-04-08T10:17:37.239Z,16.68
2023-04-08T10:18:39.293Z,16.78
2023-04-08T10:19:41.544Z,16.93
2023-04-08T10:20:46.393Z,16.73
2023-04-08T10:21:48.301Z,16.87
2023-04-08T10:22:50.317Z,16.72
2023-04-08T10:23:54.925Z,16.83
2023-04-08T10:25:19.268Z,16.70
2023-04-08T10:26:41.317Z,16.75
2023-04-08T10:27:44.632Z,16.71
2023-04-08T10:28:46.615Z,16.80
2023-04-08T10:29:48.629Z,16.83
2023-04-08T10:32:03.390Z,16.79
2023-04-08T10:33:14.949Z,16.78
2023-04-08T10:34:22.325Z,16.78
2023-04-08T10:35:39.564Z,16.86
2023-04-08T10:36:42.239Z,16.82
2023-04-08T10:37:44.591Z,16.77
2023-04-08T10:38:48.363Z,16.78
2023-04-08T10:39:50.401Z,16.67
2023-04-08T10:40:54.146Z,16.55
2023-04-08T10:41:56.180Z,16.72
2023-04-08T10:42:59.174Z,16.79
2023-04-08T10:44:04.302Z,16.84
2023-04-08T10:45:08.512Z,16.70
2023-04-08T10:46:11.074Z,16.72
2023-04-08T10:47:13.244Z,16.62
2023-04-08T10:48:21.273Z,16.62
2023-04-08T10:49:26.951Z,16.66
2023-04-08T10:50:30.957Z,16.61
2023-04-08T10:51:33.871Z,16.61
2023-04-08T10:52:38.147Z,16.47
2023-04-08T10:53:40.237Z,16.54
2023-04-08T10:54:45.846Z,16.56
2023-04-08T10:55:48.710Z,16.50
2023-04-08T10:56:52.316Z,16.38
2023-04-08T10:57:55.844Z,16.51
2023-04-08T10:58:58.314Z,16.49
2023-04-08T11:00:00.378Z,16.63
2023-04-08T11:01:06.038Z,16.62
2023-04-08T11:02:13.771Z,16.72
2023-04-08T11:03:16.244Z,16.84
2023-04-08T11:04:18.764Z,16.71
2023-04-08T11:05:22.210Z,16.70
2023-04-08T11:06:24.223Z,16.78
2023-04-08T11:07:26.125Z,16.75
2023-04-08T11:08:32.727Z,16.77
2023-04-08T11:09:34.754Z,16.78
2023-04-08T11:10:39.341Z,16.72
2023-04-08T11:11:43.561Z,16.85
2023-04-08T11:12:45.711Z,16.74
2023-04-08T11:13:53.266Z,16.84
2023-04-08T11:14:52.247Z,16.96
2023-04-08T11:15:56.611Z,16.85
2023-04-08T11:16:58.674Z,16.82
2023-04-08T11:18:01.688Z,16.92
2023-04-08T11:19:05.092Z,17.05
2023-04-08T11:20:09.228Z,16.93
2023-04-08T11:21:14.256Z,16.97
2023-04-08T11:22:16.691Z,17.05
2023-04-08T11:23:19.285Z,17.18
2023-04-08T11:24:22.163Z,17.18
2023-04-08T11:25:25.474Z,17.18
2023-04-08T11:26:32.152Z,17.17
2023-04-08T11:27:34.862Z,17.16
2023-04-08T11:28:38.518Z,17.24
2023-04-08T11:29:41.023Z,17.15
2023-04-08T11:30:45.616Z,17.19
2023-04-08T11:31:47.649Z,17.20
2023-04-08T11:32:50.134Z,17.20
2023-04-08T11:33:54.688Z,17.32
2023-04-08T11:35:03.870Z,17.29
2023-04-08T11:36:06.436Z,17.29
2023-04-08T11:37:08.477Z,17.21
2023-04-08T11:38:13.010Z,17.35
2023-04-08T11:39:15.181Z,17.32
2023-04-08T11:40:20.208Z,17.33
2023-04-08T11:41:22.770Z,17.40
2023-04-08T11:42:30.533Z,17.40
2023-04-08T11:43:45.559Z,17.36
2023-04-08T11:44:49.129Z,17.55
2023-04-08T11:45:52.030Z,17.43
2023-04-08T11:46:58.698Z,17.57
2023-04-08T11:48:16.739Z,17.57
2023-04-08T11:49:21.799Z,17.46
2023-04-08T11:50:25.776Z,17.42
2023-04-08T11:51:28.460Z,17.39
2023-04-08T11:52:47.643Z,17.43
2023-04-08T11:53:52.705Z,17.51
2023-04-08T11:54:57.883Z,17.54
2023-04-08T11:56:20.796Z,17.64
2023-04-08T11:57:40.398Z,17.67
2023-04-08T11:58:46.461Z,17.75
2023-04-08T11:59:50.151Z,17.84
2023-04-08T12:00:55.588Z,17.85
2023-04-08T12:01:57.914Z,17.92
2023-04-08T12:03:01.129Z,18.06
2023-04-08T12:04:03.401Z,18.09
2023-04-08T12:05:09.938Z,18.12
2023-04-08T12:06:14.568Z,18.25
2023-04-08T12:07:17.015Z,18.30
2023-04-08T12:08:21.541Z,18.28
2023-04-08T12:09:23.969Z,18.34
2023-04-08T12:10:27.605Z,18.33
2023-04-08T12:11:30.825Z,18.38
2023-04-08T12:12:32.935Z,18.35
2023-04-08T12:13:35.153Z,18.15
2023-04-08T12:14:37.253Z,18.25
2023-04-08T12:17:07.390Z,18.24
2023-04-08T12:18:10.194Z,18.25
2023-04-08T12:19:14.477Z,18.11
2023-04-08T12:20:20.495Z,18.13
2023-04-08T12:21:24.966Z,18.24
2023-04-08T12:22:32.330Z,18.26
2023-04-08T12:23:37.658Z,18.32
2023-04-08T12:24:41.353Z,18.62
2023-04-08T12:25:43.389Z,18.58
2023-04-08T12:26:45.903Z,18.72
2023-04-08T12:27:53.775Z,18.67
2023-04-08T12:28:56.435Z,18.62
2023-04-08T12:29:59.492Z,18.52
2023-04-08T12:31:09.189Z,18.64
2023-04-08T12:32:15.870Z,18.44
2023-04-08T12:33:20.235Z,18.60
2023-04-08T12:34:28.699Z,18.71
2023-04-08T12:35:34.775Z,18.75
2023-04-08T12:36:52.492Z,18.33
2023-04-08T12:37:57.617Z,18.28
2023-04-08T12:40:22.938Z,18.17
2023-04-08T12:41:42.104Z,18.03
2023-04-08T12:42:46.351Z,17.87
2023-04-08T12:43:52.459Z,17.81
2023-04-08T12:44:56.454Z,17.63
2023-04-08T12:45:58.450Z,17.60
2023-04-08T12:47:03.896Z,17.66
2023-04-08T12:48:06.431Z,17.57
2023-04-08T12:49:09.153Z,17.44
2023-04-08T12:50:14.839Z,17.42
2023-04-08T12:51:16.848Z,17.29
2023-04-08T12:52:23.611Z,17.02
2023-04-08T12:53:26.780Z,17.09
2023-04-08T12:54:28.778Z,16.95
2023-04-08T12:55:34.767Z,16.95
2023-04-08T12:56:43.758Z,16.81
2023-04-08T12:57:47.045Z,16.82
2023-04-08T12:58:53.265Z,16.66
2023-04-08T12:59:57.721Z,16.68
2023-04-08T13:01:07.020Z,16.69
2023-04-08T13:02:18.349Z,16.53
2023-04-08T13:03:25.852Z,16.42
2023-04-08T13:04:30.216Z,16.41
2023-04-08T13:05:43.397Z,16.05
2023-04-08T13:06:39.867Z,15.79
2023-04-08T13:07:45.089Z,15.29
2023-04-08T13:08:49.510Z,14.82
2023-04-08T13:09:54.117Z,14.50
2023-04-08T13:10:57.338Z,14.07
2023-04-08T13:11:59.444Z,13.63
2023-04-08T13:13:01.412Z,13.62
2023-04-08T13:14:03.584Z,13.38
2023-04-08T13:15:13.526Z,13.04
2023-04-08T13:16:19.476Z,12.89
2023-04-08T13:17:32.110Z,12.47
2023-04-08T13:18:42.774Z,12.47
2023-04-08T13:21:29.813Z,12.38
2023-04-08T13:22:48.270Z,12.16
2023-04-08T13:24:10.998Z,12.28
2023-04-08T13:25:23.995Z,12.32
2023-04-08T13:26:30.008Z,12.25
2023-04-08T13:27:44.729Z,12.19
2023-04-08T13:30:52.553Z,12.13
2023-04-08T13:33:33.887Z,12.13
2023-04-08T13:34:38.563Z,12.14
2023-04-08T13:35:45.852Z,12.16
2023-04-08T13:38:13.283Z,12.01
2023-04-08T13:39:28.088Z,11.95
2023-04-08T13:40:35.333Z,11.89
2023-04-08T13:41:44.242Z,11.88
2023-04-08T13:42:58.850Z,11.88
2023-04-08T13:44:13.357Z,11.93
2023-04-08T13:45:28.028Z,11.98
2023-04-08T13:49:39.246Z,11.93
2023-04-08T13:50:43.324Z,12.06
2023-04-08T13:53:30.087Z,11.98
2023-04-08T13:54:24.308Z,12.01
2023-04-08T13:55:28.839Z,12.31
2023-04-08T13:56:32.174Z,12.39
2023-04-08T13:57:34.697Z,12.54
2023-04-08T13:58:38.777Z,12.56
2023-04-08T13:59:42.655Z,12.47
2023-04-08T14:00:46.755Z,12.49
2023-04-08T14:01:51.835Z,12.54
2023-04-08T14:02:57.775Z,12.55
2023-04-08T14:05:35.780Z,12.31
2023-04-08T14:06:40.250Z,12.58
2023-04-08T14:07:44.764Z,12.59
2023-04-08T14:08:49.680Z,12.66
2023-04-08T14:09:53.703Z,12.65
2023-04-08T14:10:59.038Z,12.71
2023-04-08T14:12:14.110Z,12.80
2023-04-08T14:13:28.598Z,12.87
2023-04-08T14:14:32.845Z,12.96
2023-04-08T14:15:40.367Z,12.92
2023-04-08T14:17:03.181Z,12.97
2023-04-08T14:18:09.415Z,13.09
2023-04-08T14:19:16.412Z,13.03